This is the latest recevied weather packets stored in our database for station/object NN5DX-13. If no packets are shown the sender has not sent any weather packets the latest 10 day(s).
| Time | Temp. | Humidity | Pressure | Rain* | Wind** | Luminosity | Snow |
|---|---|---|---|---|---|---|---|
| 1778278216 | 27.22° C | 44% | 1010.3 hPa | 0 mm | - | - | - |
| 1778277916 | 27.22° C | 45% | 1010.2 hPa | 0 mm | - | - | - |
| 1778277616 | 27.22° C | 44% | 1010.1 hPa | 0 mm | - | - | - |
| 1778277316 | 27.22° C | 44% | 1010.1 hPa | 0 mm | - | - | - |
| 1778277016 | 27.78° C | 44% | 1010.2 hPa | 0 mm | - | - | - |
| 1778276716 | 27.78° C | 43% | 1009.9 hPa | 0 mm | - | - | - |
| 1778276416 | 28.33° C | 42% | 1010.1 hPa | 0 mm | - | - | - |
| 1778276116 | 28.33° C | 42% | 1010.1 hPa | 0 mm | - | - | - |
| 1778275816 | 28.89° C | 41% | 1010.3 hPa | 0 mm | - | - | - |
| 1778275516 | 29.44° C | 41% | 1010.4 hPa | 0 mm | - | - | - |
| 1778275216 | 28.89° C | 42% | 1010.4 hPa | 0 mm | - | - | - |
| 1778274916 | 28.33° C | 41% | 1010.1 hPa | 0 mm | - | - | - |
| 1778274617 | 28.33° C | 42% | 1010.4 hPa | 0 mm | - | - | - |
| 1778274316 | 28.33° C | 42% | 1010.6 hPa | 0 mm | - | - | - |
| 1778274016 | 28.33° C | 42% | 1010.7 hPa | 0 mm | - | - | - |
| 1778273720 | 28.33° C | 42% | 1010.7 hPa | 0 mm | - | - | - |
| 1778273417 | 28.33° C | 42% | 1010.8 hPa | 0 mm | - | - | - |
| 1778273116 | 28.89° C | 40% | 1010.8 hPa | 0 mm | - | - | - |
| 1778272816 | 29.44° C | 40% | 1011.1 hPa | 0 mm | - | - | - |
| 1778272516 | 28.89° C | 41% | 1010.9 hPa | 0 mm | - | - | - |
| 1778272216 | 28.89° C | 41% | 1010.9 hPa | 0 mm | - | - | - |
| 1778271916 | 28.33° C | 42% | 1011 hPa | 0 mm | - | - | - |
| 1778271616 | 28.33° C | 42% | 1011.1 hPa | 0 mm | - | - | - |
| 1778271316 | 28.33° C | 44% | 1011.1 hPa | 0 mm | - | - | - |
| 1778271016 | 28.33° C | 44% | 1011.3 hPa | 0 mm | - | - | - |
* Rain latest hour (hover to see other rain measurements)
** Current wind speed in m/s (hover to see current wind gust speed)